Time;durP1;ratioP1;P1;durP2;ratioP2;P2;SDS_P1;SDS_P2;PMS_P1;PMS_P2;Temp;Humidity;BMP_temperature;BMP_pressure;BME280_temperature;BME280_humidity;BME280_pressure;Samples;Min_cycle;Max_cycle;Signal;HPM_P1;HPM_P2
2022/07/18 00:02:10;;;;;;;3.28;1.13;;;16.30;94.30;;;;;;4991346;28;20026;-60
2022/07/18 00:04:36;;;;;;;3.55;1.20;;;16.30;94.90;;;;;;4975269;28;20470;-60
2022/07/18 00:07:02;;;;;;;3.45;1.50;;;16.40;95.00;;;;;;4976247;28;20069;-58
2022/07/18 00:09:27;;;;;;;2.75;0.95;;;16.30;95.20;;;;;;4976247;28;20066;-59
2022/07/18 00:11:53;;;;;;;2.92;0.73;;;16.40;94.90;;;;;;4976282;28;20054;-58
2022/07/18 00:14:20;;;;;;;2.33;0.90;;;16.50;95.30;;;;;;4975363;28;20023;-58
2022/07/18 00:16:47;;;;;;;3.90;0.85;;;16.40;95.60;;;;;;4975285;28;20026;-55
2022/07/18 00:19:13;;;;;;;3.70;1.17;;;16.40;95.90;;;;;;4976473;28;20030;-58
2022/07/18 00:21:39;;;;;;;2.33;1.00;;;16.20;96.70;;;;;;4975848;28;20027;-60
2022/07/18 00:24:04;;;;;;;1.50;0.77;;;16.10;97.40;;;;;;4974521;28;20058;-58
2022/07/18 00:26:30;;;;;;;1.52;0.77;;;16.00;98.50;;;;;;4976422;28;20026;-57
2022/07/18 00:28:56;;;;;;;5.57;1.30;;;15.90;99.10;;;;;;4975978;28;20027;-59
2022/07/18 00:31:22;;;;;;;1.67;1.10;;;15.90;99.60;;;;;;4974683;28;20027;-58
2022/07/18 00:33:47;;;;;;;1.95;1.10;;;15.80;99.90;;;;;;4975895;28;20049;-56
2022/07/18 00:36:13;;;;;;;5.13;1.20;;;15.70;99.90;;;;;;4975810;28;20102;-57
2022/07/18 00:38:38;;;;;;;2.70;1.00;;;15.60;99.90;;;;;;4975823;28;20105;-60
2022/07/18 00:41:04;;;;;;;8.00;0.90;;;15.60;99.90;;;;;;4975752;28;20042;-55
2022/07/18 00:43:30;;;;;;;3.53;1.35;;;15.60;99.90;;;;;;4975759;28;20015;-57
2022/07/18 00:45:56;;;;;;;3.00;1.02;;;15.50;99.90;;;;;;4975957;28;20019;-59
2022/07/18 00:48:22;;;;;;;4.88;1.00;;;15.50;99.90;;;;;;4974411;28;20117;-60
2022/07/18 00:50:48;;;;;;;8.82;2.42;;;15.40;99.90;;;;;;4974272;28;20067;-56
2022/07/18 00:53:14;;;;;;;2.60;1.20;;;15.40;99.90;;;;;;4974811;28;20031;-58
2022/07/18 00:55:43;;;;;;;2.17;0.70;;;15.40;99.90;;;;;;4975512;28;20074;-57
2022/07/18 00:58:10;;;;;;;5.50;1.20;;;15.30;99.90;;;;;;4975006;28;20085;-60
2022/07/18 01:03:20;;;;;;;7.55;1.50;;;15.10;99.90;;;;;;4975973;28;20109;-59
2022/07/18 01:05:46;;;;;;;5.47;1.25;;;15.00;99.90;;;;;;4975420;28;20066;-57
2022/07/18 01:08:12;;;;;;;3.33;1.10;;;15.00;99.90;;;;;;4974056;28;20050;-55
2022/07/18 01:10:38;;;;;;;2.10;0.88;;;14.90;99.90;;;;;;4973958;28;20070;-57
2022/07/18 01:13:03;;;;;;;3.58;1.15;;;14.90;99.90;;;;;;4973947;28;20466;-57
2022/07/18 01:15:29;;;;;;;2.58;1.02;;;14.90;99.90;;;;;;4974018;28;20027;-56
2022/07/18 01:17:55;;;;;;;1.15;0.98;;;14.80;99.90;;;;;;4975014;28;20035;-59
2022/07/18 01:20:20;;;;;;;7.95;1.13;;;14.90;99.90;;;;;;4975027;28;20038;-59
2022/07/18 01:22:46;;;;;;;1.80;0.90;;;14.90;99.90;;;;;;4973993;28;20023;-56
2022/07/18 01:25:14;;;;;;;6.15;1.10;;;14.90;99.90;;;;;;4975170;28;20058;-55
2022/07/18 01:27:40;;;;;;;1.77;0.93;;;15.00;99.90;;;;;;4974994;28;20030;-59
2022/07/18 01:30:06;;;;;;;5.53;1.92;;;15.10;99.90;;;;;;4989821;28;20026;-57
2022/07/18 01:32:32;;;;;;;2.20;1.40;;;15.00;99.90;;;;;;4974784;28;20027;-56
2022/07/18 01:34:58;;;;;;;2.67;1.20;;;15.00;99.90;;;;;;4989599;28;20042;-56
2022/07/18 01:37:23;;;;;;;3.95;1.05;;;14.90;99.90;;;;;;4973591;28;20059;-58
2022/07/18 01:39:49;;;;;;;2.67;1.08;;;15.00;99.90;;;;;;4973339;28;20035;-60
2022/07/18 01:42:16;;;;;;;2.80;1.00;;;14.90;99.90;;;;;;4989625;28;20087;-58
2022/07/18 01:44:42;;;;;;;2.25;1.00;;;14.90;99.90;;;;;;4974376;28;20105;-57
2022/07/18 01:47:09;;;;;;;3.03;1.00;;;14.90;99.90;;;;;;4974982;28;20033;-57
2022/07/18 01:49:35;;;;;;;3.17;1.20;;;14.90;99.90;;;;;;4973602;28;20027;-60
2022/07/18 01:52:01;;;;;;;2.42;1.17;;;15.00;99.90;;;;;;4974630;28;20105;-60
2022/07/18 01:54:29;;;;;;;1.75;0.80;;;14.90;99.90;;;;;;4973491;28;20033;-60
2022/07/18 01:56:55;;;;;;;1.48;0.95;;;14.80;99.90;;;;;;4974864;28;20026;-60
2022/07/18 01:59:21;;;;;;;1.90;0.90;;;14.90;99.90;;;;;;4974455;28;20099;-60
2022/07/18 02:01:47;;;;;;;2.25;1.00;;;14.90;99.90;;;;;;4973444;28;20077;-55
2022/07/18 02:04:13;;;;;;;4.28;1.15;;;14.90;99.90;;;;;;4973378;28;20106;-59
2022/07/18 02:06:39;;;;;;;4.53;1.33;;;14.90;99.90;;;;;;4974774;28;20105;-57
2022/07/18 02:09:06;;;;;;;6.90;1.20;;;14.70;99.90;;;;;;4974002;28;20161;-58
2022/07/18 02:11:32;;;;;;;4.55;1.10;;;14.60;99.90;;;;;;4973983;28;20031;-57
2022/07/18 02:13:58;;;;;;;3.17;1.02;;;14.50;99.90;;;;;;4974460;28;20041;-54
2022/07/18 02:16:24;;;;;;;3.38;0.90;;;14.50;99.90;;;;;;4974671;28;20110;-57
2022/07/18 02:18:49;;;;;;;3.70;1.35;;;14.50;99.90;;;;;;4973420;28;20062;-60
2022/07/18 02:21:15;;;;;;;3.55;1.20;;;14.40;99.90;;;;;;4974187;28;20030;-56
2022/07/18 02:23:43;;;;;;;1.70;1.10;;;14.30;99.90;;;;;;4973530;28;20492;-59
2022/07/18 02:26:11;;;;;;;1.13;0.80;;;14.20;99.90;;;;;;4973415;28;20033;-59
2022/07/18 02:28:36;;;;;;;9.50;1.35;;;14.00;99.90;;;;;;4974378;28;20037;-58
2022/07/18 02:31:03;;;;;;;3.50;1.20;;;14.00;99.90;;;;;;4973256;28;20027;-60
2022/07/18 02:33:29;;;;;;;3.50;1.08;;;14.00;99.90;;;;;;4973022;28;20474;-60
2022/07/18 02:35:55;;;;;;;2.72;0.82;;;13.90;99.90;;;;;;4974194;28;20035;-59
2022/07/18 02:38:20;;;;;;;3.17;1.27;;;13.90;99.90;;;;;;4989158;28;20062;-60
2022/07/18 02:40:46;;;;;;;1.30;1.02;;;13.80;99.90;;;;;;4973951;28;20031;-60
2022/07/18 02:43:11;;;;;;;4.28;1.40;;;13.90;99.90;;;;;;4973484;28;20031;-58
2022/07/18 02:45:37;;;;;;;0.98;0.70;;;13.90;99.90;;;;;;4973770;28;20089;-57
2022/07/18 02:48:03;;;;;;;4.05;1.13;;;13.90;99.90;;;;;;4992805;28;20058;-60
2022/07/18 02:50:29;;;;;;;1.45;1.00;;;13.80;99.90;;;;;;4976983;28;20031;-60
2022/07/18 02:52:56;;;;;;;2.00;1.02;;;13.80;99.90;;;;;;4977735;28;20106;-60
2022/07/18 02:55:23;;;;;;;4.15;1.08;;;13.80;99.90;;;;;;4976796;28;20049;-58
2022/07/18 02:57:49;;;;;;;3.15;1.00;;;13.80;99.90;;;;;;4977638;28;20486;-60
2022/07/18 03:00:16;;;;;;;2.58;1.00;;;13.80;99.90;;;;;;4977827;28;20038;-59
2022/07/18 03:02:43;;;;;;;1.10;0.85;;;13.80;99.90;;;;;;4977682;28;20027;-57
2022/07/18 03:05:10;;;;;;;6.22;1.45;;;13.80;99.90;;;;;;4976327;28;20030;-57
2022/07/18 03:07:36;;;;;;;4.50;1.17;;;13.80;99.90;;;;;;4976323;28;20038;-59
2022/07/18 03:10:02;;;;;;;4.85;2.15;;;13.60;99.90;;;;;;4976161;28;20073;-59
2022/07/18 03:12:28;;;;;;;4.55;2.53;;;13.60;99.90;;;;;;4977643;28;20426;-59
2022/07/18 03:14:54;;;;;;;3.05;1.42;;;13.60;99.90;;;;;;4977566;28;20027;-60
2022/07/18 03:17:19;;;;;;;1.73;1.27;;;13.60;99.90;;;;;;4976079;28;20474;-60
2022/07/18 03:19:45;;;;;;;11.75;4.50;;;13.60;99.90;;;;;;4975894;28;20023;-59
2022/07/18 03:22:11;;;;;;;4.78;2.30;;;13.50;99.90;;;;;;4975904;28;20058;-60
2022/07/18 03:24:36;;;;;;;3.53;0.93;;;13.40;99.90;;;;;;4975984;28;20066;-56
2022/07/18 03:27:02;;;;;;;3.75;1.48;;;13.50;99.90;;;;;;4975960;28;20110;-59
2022/07/18 03:29:28;;;;;;;4.38;1.20;;;13.50;99.90;;;;;;4975783;28;20038;-58
2022/07/18 03:31:53;;;;;;;8.88;1.45;;;13.50;99.90;;;;;;4992418;28;20121;-59
2022/07/18 03:34:19;;;;;;;2.03;0.98;;;13.50;99.90;;;;;;4977605;28;20085;-56
2022/07/18 03:36:45;;;;;;;2.47;1.10;;;13.50;99.90;;;;;;4991846;28;20023;-59
2022/07/18 03:39:12;;;;;;;1.75;1.20;;;13.40;99.90;;;;;;4976906;28;20506;-59
2022/07/18 03:41:38;;;;;;;4.55;1.38;;;13.30;99.90;;;;;;4975552;28;20046;-59
2022/07/18 03:44:05;;;;;;;1.20;0.90;;;13.30;99.90;;;;;;4976885;28;20478;-59
2022/07/18 03:46:31;;;;;;;3.58;1.08;;;13.30;99.90;;;;;;4975881;28;20122;-57
2022/07/18 03:48:57;;;;;;;2.20;1.15;;;13.30;99.90;;;;;;4975594;28;20027;-60
2022/07/18 03:51:23;;;;;;;5.30;1.33;;;13.40;99.90;;;;;;4975792;28;20118;-55
2022/07/18 03:53:49;;;;;;;2.95;1.30;;;13.40;99.90;;;;;;4976740;28;20027;-60
2022/07/18 03:56:15;;;;;;;7.90;1.45;;;13.40;99.90;;;;;;4976493;28;20034;-58
2022/07/18 03:58:41;;;;;;;5.15;1.77;;;13.50;99.90;;;;;;4976489;28;20026;-60
2022/07/18 04:01:07;;;;;;;4.18;1.33;;;13.50;99.90;;;;;;4975258;28;20023;-60
2022/07/18 04:03:32;;;;;;;3.45;1.48;;;13.60;99.90;;;;;;4975557;28;20421;-60
2022/07/18 04:05:58;;;;;;;2.92;1.38;;;13.70;99.90;;;;;;4975308;28;20030;-60
2022/07/18 04:08:24;;;;;;;3.80;1.60;;;13.60;99.90;;;;;;4976458;28;20035;-60
2022/07/18 04:10:50;;;;;;;8.55;4.45;;;13.70;99.90;;;;;;4991190;28;20057;-60
2022/07/18 04:13:16;;;;;;;5.32;2.00;;;13.90;99.90;;;;;;4975115;28;20031;-58
2022/07/18 04:15:42;;;;;;;4.35;1.48;;;14.10;99.90;;;;;;4976261;28;20412;-60
2022/07/18 04:18:08;;;;;;;1.88;1.20;;;14.30;99.90;;;;;;4975320;28;20441;-60
2022/07/18 04:20:35;;;;;;;2.15;1.42;;;14.50;99.90;;;;;;4975438;28;20138;-60
2022/07/18 04:23:03;;;;;;;3.80;1.27;;;14.80;99.90;;;;;;4976109;28;20105;-60
2022/07/18 04:25:34;;;;;;;1.80;1.20;;;15.10;99.90;;;;;;4976190;28;20394;-59
2022/07/18 04:28:00;;;;;;;3.35;1.10;;;15.30;99.90;;;;;;4975772;28;20027;-60
2022/07/18 04:30:27;;;;;;;2.53;1.25;;;15.70;99.90;;;;;;4990946;28;20030;-59
2022/07/18 04:32:54;;;;;;;2.78;1.15;;;16.00;99.90;;;;;;4976210;28;20114;-58
2022/07/18 04:35:20;;;;;;;3.42;1.40;;;16.20;99.90;;;;;;4974792;28;20026;-57
2022/07/18 04:37:45;;;;;;;4.03;1.65;;;16.50;99.90;;;;;;4975001;28;20078;-57
2022/07/18 04:40:11;;;;;;;4.07;1.52;;;16.70;99.90;;;;;;4975734;28;20069;-59
2022/07/18 04:42:37;;;;;;;3.33;1.20;;;17.10;99.90;;;;;;4974531;28;20126;-60
2022/07/18 04:45:04;;;;;;;2.38;1.05;;;17.50;99.90;;;;;;4975766;28;20466;-60
2022/07/18 04:47:30;;;;;;;2.42;1.30;;;17.80;99.90;;;;;;4974622;28;20077;-59
2022/07/18 04:49:56;;;;;;;2.90;1.20;;;18.10;99.90;;;;;;4974396;28;20023;-60
2022/07/18 04:52:22;;;;;;;3.00;1.17;;;18.40;99.90;;;;;;4974345;28;20026;-61
2022/07/18 04:54:47;;;;;;;2.15;1.02;;;18.60;99.90;;;;;;4974604;28;20023;-60
2022/07/18 04:57:14;;;;;;;2.35;1.25;;;18.90;99.90;;;;;;4974525;28;20509;-60
2022/07/18 04:59:41;;;;;;;1.90;1.13;;;19.20;99.90;;;;;;4991489;28;20034;-61
2022/07/18 05:02:07;;;;;;;3.10;1.52;;;19.50;99.90;;;;;;4991409;28;20027;-61
2022/07/18 05:04:33;;;;;;;2.45;1.20;;;19.80;99.90;;;;;;4974464;28;20026;-60
2022/07/18 05:06:59;;;;;;;2.47;1.40;;;20.10;99.90;;;;;;4975341;28;20031;-61
2022/07/18 05:09:25;;;;;;;4.05;1.50;;;20.40;99.90;;;;;;4974700;28;20022;-61
2022/07/18 05:11:51;;;;;;;3.08;1.35;;;20.80;99.90;;;;;;4975198;28;20073;-60
2022/07/18 05:14:17;;;;;;;2.72;1.17;;;21.00;99.90;;;;;;4973951;28;20026;-60
2022/07/18 05:16:43;;;;;;;1.95;1.20;;;21.40;99.90;;;;;;4974736;28;20042;-61
2022/07/18 05:19:08;;;;;;;4.88;1.30;;;21.80;99.90;;;;;;4973963;28;20031;-60
2022/07/18 05:21:34;;;;;;;3.20;1.38;;;22.20;99.90;;;;;;4975034;28;20031;-60
2022/07/18 05:23:59;;;;;;;2.63;1.05;;;22.50;99.90;;;;;;4973807;28;20023;-61
2022/07/18 05:26:25;;;;;;;3.83;1.40;;;22.70;99.80;;;;;;4974915;28;20034;-60
2022/07/18 05:28:50;;;;;;;1.13;1.02;;;22.90;98.70;;;;;;4989859;28;20034;-61
2022/07/18 05:31:16;;;;;;;3.85;1.30;;;23.10;98.20;;;;;;4973639;28;20433;-60
2022/07/18 05:33:42;;;;;;;6.50;1.20;;;23.50;97.40;;;;;;4973743;28;20026;-61
2022/07/18 05:36:08;;;;;;;1.60;1.30;;;23.70;96.50;;;;;;4974905;28;20102;-61
2022/07/18 05:38:34;;;;;;;6.30;1.67;;;24.10;95.40;;;;;;4973821;28;20031;-61
2022/07/18 05:40:59;;;;;;;2.22;1.52;;;24.60;94.20;;;;;;4973452;28;20038;-61
2022/07/18 05:43:25;;;;;;;3.80;1.20;;;24.90;93.30;;;;;;4974812;28;20023;-60
2022/07/18 05:45:50;;;;;;;4.28;1.48;;;25.30;92.40;;;;;;4989735;28;20026;-61
2022/07/18 05:48:16;;;;;;;5.88;1.67;;;25.60;90.70;;;;;;4974801;28;20029;-62
2022/07/18 05:50:41;;;;;;;6.43;1.48;;;25.80;91.20;;;;;;4990179;28;20023;-62
2022/07/18 05:53:07;;;;;;;2.83;1.45;;;26.10;90.20;;;;;;4973414;28;20058;-61
2022/07/18 05:55:33;;;;;;;3.60;1.65;;;26.30;88.70;;;;;;4989976;28;20023;-62
2022/07/18 05:57:58;;;;;;;2.10;1.40;;;26.60;85.40;;;;;;4973571;28;20031;-62
2022/07/18 06:00:24;;;;;;;4.63;1.60;;;27.10;86.30;;;;;;4974608;28;20031;-62
2022/07/18 06:02:50;;;;;;;5.97;1.85;;;27.50;82.40;;;;;;4974625;28;20029;-62
2022/07/18 06:05:17;;;;;;;4.85;1.55;;;27.80;81.60;;;;;;4974304;28;20023;-62
2022/07/18 06:07:42;;;;;;;3.53;1.45;;;28.20;80.90;;;;;;4974512;28;20597;-62
2022/07/18 06:10:08;;;;;;;3.55;1.27;;;28.30;77.50;;;;;;4973173;28;20122;-62
2022/07/18 06:12:34;;;;;;;6.47;1.67;;;28.70;76.90;;;;;;4974888;28;20027;-62
2022/07/18 06:15:00;;;;;;;5.10;1.50;;;29.00;75.50;;;;;;4974433;28;20045;-62
2022/07/18 06:17:27;;;;;;;5.43;2.00;;;29.10;74.30;;;;;;4974421;28;20057;-62
2022/07/18 06:19:53;;;;;;;2.85;1.58;;;29.30;73.90;;;;;;4973185;28;20058;-62
2022/07/18 06:22:19;;;;;;;4.57;1.20;;;29.50;72.30;;;;;;4976568;28;20058;-62
2022/07/18 06:24:45;;;;;;;3.47;1.33;;;29.90;72.50;;;;;;4977074;28;20026;-62
2022/07/18 06:27:10;;;;;;;3.83;1.58;;;30.50;69.90;;;;;;4978595;28;20026;-62
2022/07/18 06:29:36;;;;;;;7.43;1.40;;;31.00;69.20;;;;;;4977258;28;20022;-63
2022/07/18 06:32:02;;;;;;;3.97;1.50;;;31.40;65.00;;;;;;4993163;28;20031;-62
2022/07/18 06:34:27;;;;;;;2.85;1.20;;;31.80;66.10;;;;;;4976913;28;20026;-64
2022/07/18 06:36:53;;;;;;;3.80;1.67;;;32.10;63.40;;;;;;4976916;28;20043;-64
2022/07/18 06:39:19;;;;;;;7.35;1.40;;;32.30;61.90;;;;;;4978048;28;20037;-64
2022/07/18 06:41:45;;;;;;;3.60;1.25;;;32.10;62.00;;;;;;4976635;28;20029;-64
2022/07/18 06:44:11;;;;;;;2.38;1.50;;;32.80;61.30;;;;;;4977148;28;20023;-64
2022/07/18 06:46:37;;;;;;;5.15;1.52;;;33.30;58.40;;;;;;4977969;28;20077;-64
2022/07/18 06:49:04;;;;;;;5.00;1.70;;;33.70;57.60;;;;;;4976698;28;20051;-64
2022/07/18 06:51:29;;;;;;;2.92;1.33;;;34.10;56.80;;;;;;4976555;28;20030;-64
2022/07/18 06:54:11;;;;;;;5.60;1.33;;;34.40;57.10;;;;;;4976556;28;20081;-64
2022/07/18 06:56:37;;;;;;;2.28;1.20;;;34.70;57.40;;;;;;4977828;28;20035;-64
2022/07/18 06:59:03;;;;;;;2.22;1.30;;;35.00;53.70;;;;;;4976454;28;20037;-64
2022/07/18 07:01:28;;;;;;;5.07;1.70;;;34.60;55.00;;;;;;4977883;28;20431;-64
2022/07/18 07:03:54;;;;;;;3.33;1.45;;;34.50;52.60;;;;;;4976396;28;20027;-64
2022/07/18 07:06:19;;;;;;;4.80;1.65;;;34.00;53.50;;;;;;4976331;28;20038;-64
2022/07/18 07:08:45;;;;;;;2.22;1.23;;;34.00;53.50;;;;;;4977283;28;20023;-64
2022/07/18 07:11:11;;;;;;;6.22;1.67;;;34.70;54.40;;;;;;4976400;28;20022;-64
2022/07/18 07:13:36;;;;;;;5.85;1.40;;;35.40;54.00;;;;;;4992548;28;20031;-64
2022/07/18 07:16:02;;;;;;;3.22;1.50;;;35.80;53.70;;;;;;4976441;28;20058;-64
2022/07/18 07:18:28;;;;;;;4.55;1.20;;;35.80;51.00;;;;;;4976090;28;20027;-64
2022/07/18 07:20:54;;;;;;;2.10;1.35;;;36.00;51.00;;;;;;4977268;28;20451;-64
2022/07/18 07:23:19;;;;;;;2.78;1.65;;;36.60;49.90;;;;;;4977317;28;20562;-64
2022/07/18 07:25:45;;;;;;;2.00;0.98;;;36.50;48.80;;;;;;4977305;28;20486;-64
2022/07/18 07:28:10;;;;;;;4.57;1.30;;;36.70;49.30;;;;;;4976033;28;20128;-64
2022/07/18 07:30:36;;;;;;;9.70;1.30;;;36.90;50.20;;;;;;4977160;28;20030;-64
2022/07/18 07:33:03;;;;;;;2.53;1.23;;;37.20;47.80;;;;;;4976682;28;20058;-64
2022/07/18 07:35:28;;;;;;;2.72;1.60;;;36.20;47.50;;;;;;4977093;28;20102;-64
2022/07/18 07:37:56;;;;;;;2.38;0.85;;;37.00;48.20;;;;;;4976958;28;20497;-64
2022/07/18 07:40:25;;;;;;;3.92;1.70;;;38.10;48.00;;;;;;4976944;28;20359;-64
2022/07/18 07:42:51;;;;;;;9.82;1.55;;;37.60;45.70;;;;;;4977128;28;20023;-64
2022/07/18 07:45:17;;;;;;;1.83;1.00;;;37.10;45.10;;;;;;4976919;28;20047;-64
2022/07/18 07:47:44;;;;;;;1.42;1.30;;;37.10;45.70;;;;;;4976900;28;20022;-64
2022/07/18 07:50:11;;;;;;;4.07;1.50;;;37.60;47.40;;;;;;4975538;28;20037;-64
2022/07/18 07:52:38;;;;;;;2.72;1.10;;;38.30;45.40;;;;;;4975852;28;20078;-64
2022/07/18 07:55:05;;;;;;;6.85;1.40;;;38.50;45.00;;;;;;4975810;28;20026;-64
2022/07/18 07:57:31;;;;;;;2.00;1.25;;;38.20;43.70;;;;;;4975456;28;20026;-64
2022/07/18 07:59:57;;;;;;;2.45;1.27;;;38.50;44.20;;;;;;4976513;28;20033;-64
2022/07/18 08:02:23;;;;;;;6.90;1.58;;;39.30;44.80;;;;;;4975281;28;20027;-64
2022/07/18 08:04:50;;;;;;;4.00;1.48;;;40.00;43.30;;;;;;4977155;28;20481;-64
2022/07/18 08:07:16;;;;;;;2.78;1.17;;;39.50;43.10;;;;;;4975189;28;20085;-64
2022/07/18 08:09:41;;;;;;;2.08;1.33;;;40.40;43.60;;;;;;4975108;28;20026;-64
2022/07/18 08:12:07;;;;;;;4.70;1.70;;;41.40;43.40;;;;;;4975574;28;20034;-64
2022/07/18 08:14:35;;;;;;;3.08;1.73;;;41.10;42.10;;;;;;4975905;28;20027;-64
2022/07/18 08:17:00;;;;;;;3.55;1.20;;;40.90;41.00;;;;;;4976563;28;20030;-64
2022/07/18 08:19:26;;;;;;;7.82;1.50;;;40.60;43.80;;;;;;4974978;28;20035;-64
2022/07/18 08:21:51;;;;;;;2.58;1.25;;;41.60;43.90;;;;;;4975189;28;20076;-64
2022/07/18 08:24:17;;;;;;;5.57;1.65;;;42.20;40.20;;;;;;4991422;28;20038;-63
2022/07/18 08:26:42;;;;;;;2.67;1.45;;;41.90;40.70;;;;;;4975690;28;20038;-61
2022/07/18 08:29:08;;;;;;;6.95;1.70;;;42.40;39.00;;;;;;4991236;28;20026;-62
2022/07/18 08:31:34;;;;;;;4.43;1.80;;;41.90;39.30;;;;;;4974616;28;20023;-63
2022/07/18 08:34:00;;;;;;;3.03;1.45;;;42.60;40.60;;;;;;4975620;28;20027;-62
2022/07/18 08:36:26;;;;;;;5.55;1.67;;;43.20;40.20;;;;;;4975090;28;20022;-63
2022/07/18 08:38:52;;;;;;;6.93;1.40;;;43.00;39.40;;;;;;4974603;28;20030;-64
2022/07/18 08:41:17;;;;;;;6.10;1.67;;;43.40;39.30;;;;;;4975807;28;20031;-62
2022/07/18 08:43:45;;;;;;;5.80;1.83;;;43.40;37.10;;;;;;4974993;28;20023;-62
2022/07/18 08:46:11;;;;;;;5.07;1.60;;;43.30;38.40;;;;;;4974532;28;20078;-64
2022/07/18 08:48:39;;;;;;;3.33;1.50;;;44.40;37.40;;;;;;4975875;28;20030;-64
2022/07/18 08:51:05;;;;;;;4.50;1.40;;;44.40;35.80;;;;;;4975530;28;20077;-62
2022/07/18 08:53:32;;;;;;;8.02;1.50;;;42.90;35.30;;;;;;4974967;28;20035;-63
2022/07/18 08:55:58;;;;;;;4.05;1.50;;;42.60;37.20;;;;;;4974525;28;20023;-64
2022/07/18 08:58:23;;;;;;;4.65;1.40;;;42.90;36.50;;;;;;4974314;28;20025;-60
2022/07/18 09:00:49;;;;;;;2.70;1.20;;;43.30;36.20;;;;;;4975318;28;20031;-61
2022/07/18 09:03:21;;;;;;;5.32;1.42;;;44.20;34.80;;;;;;4974330;28;20033;-63
2022/07/18 09:06:01;;;;;;;4.13;1.63;;;43.80;35.00;;;;;;4975998;28;20034;-61
2022/07/18 09:08:27;;;;;;;4.10;1.70;;;43.30;37.10;;;;;;4975432;28;20053;-63
2022/07/18 09:10:59;;;;;;;3.03;1.48;;;42.90;34.90;;;;;;4990255;28;20393;-66
2022/07/18 09:13:42;;;;;;;2.15;1.27;;;41.60;34.90;;;;;;4974031;28;20371;-63
2022/07/18 09:16:10;;;;;;;3.50;1.15;;;42.00;35.80;;;;;;4973981;28;20030;-63
2022/07/18 09:18:39;;;;;;;2.72;1.15;;;42.80;32.90;;;;;;4973857;28;20054;-64
2022/07/18 09:21:07;;;;;;;1.73;1.30;;;42.60;35.50;;;;;;4973860;28;20035;-62
2022/07/18 09:23:35;;;;;;;2.92;1.30;;;42.40;34.70;;;;;;4974189;28;20113;-63
2022/07/18 09:26:01;;;;;;;3.85;1.50;;;42.50;34.50;;;;;;4973812;28;20032;-64
2022/07/18 09:28:27;;;;;;;2.78;1.65;;;41.90;34.20;;;;;;4973775;28;20044;-64
2022/07/18 09:30:54;;;;;;;2.55;1.38;;;41.30;33.40;;;;;;4974172;28;20038;-65
2022/07/18 09:33:21;;;;;;;3.00;1.30;;;41.50;35.60;;;;;;4973711;28;20055;-64
2022/07/18 09:35:50;;;;;;;3.83;1.30;;;42.40;34.00;;;;;;4974121;28;20034;-63
2022/07/18 09:38:18;;;;;;;1.38;1.27;;;42.60;34.30;;;;;;4974954;28;20025;-63
2022/07/18 09:40:52;;;;;;;2.58;1.50;;;43.10;34.90;;;;;;4975030;28;20023;-64
2022/07/18 09:43:19;;;;;;;1.60;1.40;;;43.10;33.70;;;;;;4974277;28;20114;-62
2022/07/18 09:45:53;;;;;;;1.73;1.40;;;43.20;34.00;;;;;;4975091;28;20030;-62
2022/07/18 09:48:28;;;;;;;5.30;1.70;;;42.60;33.20;;;;;;4990120;28;20635;-62
2022/07/18 09:51:05;;;;;;;2.67;1.30;;;41.30;34.60;;;;;;4974630;28;20114;-62
2022/07/18 09:53:36;;;;;;;3.65;1.20;;;40.90;34.70;;;;;;4975290;28;20053;-61
2022/07/18 09:56:11;;;;;;;4.47;1.50;;;40.50;34.70;;;;;;4974526;28;20027;-62
2022/07/18 09:59:03;;;;;;;1.95;1.30;;;40.40;35.00;;;;;;4974974;28;20031;-61
2022/07/18 10:01:29;;;;;;;2.72;1.13;;;39.40;36.10;;;;;;4975179;28;20063;-62
2022/07/18 10:03:56;;;;;;;3.05;1.23;;;39.20;35.50;;;;;;4974569;28;20029;-61
2022/07/18 10:06:23;;;;;;;4.10;1.60;;;39.30;36.70;;;;;;4974576;28;20046;-61
2022/07/18 10:08:49;;;;;;;2.90;1.60;;;39.10;35.80;;;;;;4974166;28;20038;-61
2022/07/18 10:11:15;;;;;;;2.30;1.10;;;38.80;35.70;;;;;;4974363;28;20058;-61
2022/07/18 10:13:40;;;;;;;3.28;1.58;;;37.70;36.20;;;;;;4973810;28;20054;-61
2022/07/18 10:16:07;;;;;;;4.22;1.30;;;37.20;37.00;;;;;;4973604;28;20109;-61
2022/07/18 10:18:38;;;;;;;2.53;1.20;;;37.00;37.50;;;;;;4981739;28;20019;-53
2022/07/18 10:21:12;;;;;;;3.03;1.17;;;38.00;37.80;;;;;;4985610;28;20053;-61
2022/07/18 10:23:42;;;;;;;2.08;1.00;;;38.20;37.40;;;;;;5004228;23;20050;-54
2022/07/18 10:26:26;;;;;;;2.58;1.17;;;38.40;36.60;;;;;;4980588;28;20473;-60
2022/07/18 10:28:59;;;;;;;3.15;1.17;;;38.80;36.80;;;;;;4990765;28;20037;-63
2022/07/18 10:31:42;;;;;;;3.83;1.15;;;39.60;36.40;;;;;;4986952;28;20058;-58
2022/07/18 10:34:09;;;;;;;2.55;1.08;;;40.10;36.40;;;;;;4990767;28;20046;-63
2022/07/18 10:36:39;;;;;;;1.92;1.15;;;40.20;36.20;;;;;;4990581;28;20054;-55
2022/07/18 10:39:25;;;;;;;2.47;1.20;;;39.20;35.80;;;;;;4980275;28;20057;-60
2022/07/18 10:42:01;;;;;;;1.88;1.10;;;38.30;35.70;;;;;;4977650;28;20063;-61
2022/07/18 10:44:29;;;;;;;4.90;1.30;;;37.00;36.60;;;;;;4978004;28;20437;-55
2022/07/18 10:47:10;;;;;;;2.47;1.17;;;36.70;37.30;;;;;;4974269;28;20027;-57
2022/07/18 10:49:48;;;;;;;2.90;1.00;;;35.50;37.40;;;;;;4974209;28;20019;-57
2022/07/18 10:52:25;;;;;;;1.38;0.98;;;34.70;38.60;;;;;;4974270;28;20027;-57
2022/07/18 10:55:23;;;;;;;4.70;1.17;;;33.90;39.70;;;;;;4974123;28;20027;-56
2022/07/18 10:57:52;;;;;;;1.52;0.90;;;33.60;39.50;;;;;;4971229;28;20038;-57
2022/07/18 11:00:31;;;;;;;3.05;0.90;;;33.90;40.30;;;;;;4973043;28;20118;-57
2022/07/18 11:03:07;;;;;;;7.72;1.83;;;33.70;39.80;;;;;;4973174;28;20023;-57
2022/07/18 11:05:59;;;;;;;1.65;0.93;;;33.10;40.40;;;;;;4972881;28;20051;-53
2022/07/18 11:08:26;;;;;;;2.88;1.10;;;32.80;40.50;;;;;;4976245;28;20023;-57
2022/07/18 11:10:54;;;;;;;1.17;0.90;;;33.00;41.70;;;;;;4976148;28;20054;-57
2022/07/18 11:13:28;;;;;;;2.83;1.02;;;33.20;40.10;;;;;;4977541;28;20101;-55
2022/07/18 11:15:56;;;;;;;1.05;0.95;;;32.60;40.40;;;;;;4976293;28;20390;-54
2022/07/18 11:18:21;;;;;;;2.67;1.00;;;32.20;40.70;;;;;;4976590;28;20081;-53
2022/07/18 11:20:48;;;;;;;2.28;1.27;;;32.00;41.30;;;;;;4976571;28;20022;-57
2022/07/18 11:23:22;;;;;;;1.45;0.80;;;31.70;41.00;;;;;;4976025;28;20026;-53
2022/07/18 11:25:54;;;;;;;5.45;1.00;;;31.60;41.40;;;;;;4977248;28;20074;-56
2022/07/18 11:28:21;;;;;;;1.95;0.90;;;31.40;41.70;;;;;;4976895;28;20065;-53
2022/07/18 11:31:05;;;;;;;1.48;1.00;;;31.50;42.70;;;;;;4975761;28;20027;-56
2022/07/18 11:33:36;;;;;;;3.15;1.00;;;31.20;41.90;;;;;;4975950;28;20031;-57
2022/07/18 11:36:13;;;;;;;5.07;1.05;;;31.30;42.70;;;;;;4975881;28;20023;-56
2022/07/18 11:38:47;;;;;;;2.88;1.00;;;31.50;42.60;;;;;;4975886;28;20035;-55
2022/07/18 11:41:13;;;;;;;2.47;1.05;;;31.40;42.40;;;;;;4976030;28;20054;-54
2022/07/18 11:43:39;;;;;;;2.40;0.80;;;31.60;41.80;;;;;;4976937;28;20030;-54
2022/07/18 11:46:10;;;;;;;2.58;1.00;;;31.40;41.80;;;;;;4975914;28;20027;-53
2022/07/18 11:48:37;;;;;;;7.95;1.00;;;31.30;42.40;;;;;;4976147;28;20125;-51
2022/07/18 11:51:08;;;;;;;1.75;0.90;;;31.30;44.00;;;;;;4975583;28;20400;-52
2022/07/18 11:53:34;;;;;;;1.05;0.95;;;31.30;43.20;;;;;;4975656;28;20109;-50
2022/07/18 11:56:04;;;;;;;2.58;0.90;;;31.40;42.50;;;;;;4975821;28;20054;-51
2022/07/18 11:58:39;;;;;;;2.92;1.10;;;31.30;41.90;;;;;;4975819;28;20027;-52
2022/07/18 12:01:05;;;;;;;1.98;0.90;;;31.30;42.80;;;;;;4976662;28;20034;-53
2022/07/18 12:03:33;;;;;;;5.68;1.77;;;31.40;42.20;;;;;;4975698;28;20026;-52
2022/07/18 12:06:08;;;;;;;1.25;1.00;;;31.30;41.70;;;;;;4975623;28;20037;-52
2022/07/18 12:08:41;;;;;;;4.70;1.02;;;31.10;42.50;;;;;;4976603;28;20031;-55
2022/07/18 12:11:31;;;;;;;3.47;0.80;;;31.20;42.50;;;;;;4976793;28;20026;-52
2022/07/18 12:14:00;;;;;;;6.15;1.00;;;31.00;42.50;;;;;;4976549;28;20054;-52
2022/07/18 12:16:31;;;;;;;1.80;1.10;;;31.00;42.70;;;;;;4975194;28;20027;-51
2022/07/18 12:19:16;;;;;;;1.52;1.25;;;31.00;42.60;;;;;;4974837;28;20026;-57
2022/07/18 12:21:54;;;;;;;2.90;1.50;;;30.90;42.80;;;;;;4975649;28;20023;-56
2022/07/18 12:24:32;;;;;;;3.03;1.00;;;31.00;43.20;;;;;;4975084;28;20441;-53
2022/07/18 12:27:18;;;;;;;3.65;1.27;;;31.00;43.60;;;;;;4975926;28;20098;-54
2022/07/18 12:30:06;;;;;;;7.53;1.30;;;31.00;42.60;;;;;;4976290;28;20019;-53
2022/07/18 12:32:52;;;;;;;2.80;1.02;;;31.10;43.40;;;;;;4975673;28;20026;-54
2022/07/18 12:35:32;;;;;;;3.15;0.93;;;31.10;43.30;;;;;;4975125;28;20031;-50
2022/07/18 12:37:58;;;;;;;1.10;1.00;;;31.20;42.80;;;;;;4974804;28;20023;-54
2022/07/18 12:40:26;;;;;;;2.10;1.20;;;31.20;43.80;;;;;;4975891;28;20033;-53
2022/07/18 12:43:03;;;;;;;2.95;1.10;;;31.10;42.70;;;;;;4975830;28;20034;-55
2022/07/18 12:45:29;;;;;;;2.63;1.00;;;31.10;43.10;;;;;;4974600;28;20062;-54
2022/07/18 12:47:55;;;;;;;2.45;1.10;;;31.10;43.30;;;;;;4974522;28;20023;-55
2022/07/18 12:50:20;;;;;;;2.60;0.90;;;31.00;43.30;;;;;;4974390;28;20129;-53
2022/07/18 12:52:46;;;;;;;2.00;1.10;;;31.00;43.00;;;;;;4975023;28;20035;-55
2022/07/18 12:55:12;;;;;;;2.03;1.15;;;31.00;43.10;;;;;;4974426;28;20027;-51